createdAt,value
2022-08-26T00:00:27.560Z,93.24
2022-08-26T00:05:56.217Z,93.85
2022-08-26T00:11:26.335Z,94.51
2022-08-26T00:16:52.240Z,96.15
2022-08-26T00:28:02.601Z,95.90
2022-08-26T00:33:24.973Z,96.58
2022-08-26T00:38:49.168Z,97.19
2022-08-26T00:44:12.010Z,97.91
2022-08-26T00:49:40.490Z,97.43
2022-08-26T00:55:05.468Z,97.78
2022-08-26T01:00:31.010Z,98.06
2022-08-26T01:05:56.991Z,98.45
2022-08-26T01:11:21.870Z,99.42
2022-08-26T01:16:45.004Z,99.66
2022-08-26T01:22:12.490Z,99.18
2022-08-26T01:27:36.259Z,98.28
2022-08-26T01:33:02.470Z,97.82
2022-08-26T01:38:25.250Z,99.56
2022-08-26T01:43:51.810Z,100.00
2022-08-26T01:49:16.070Z,100.00
2022-08-26T01:54:38.199Z,100.00
2022-08-26T02:00:03.389Z,100.00
2022-08-26T02:05:33.210Z,100.00
2022-08-26T02:10:57.220Z,100.00
2022-08-26T02:16:23.162Z,100.00
2022-08-26T02:21:51.313Z,100.00
2022-08-26T02:27:15.450Z,100.00
2022-08-26T02:32:38.211Z,100.00
2022-08-26T02:38:03.121Z,100.00
2022-08-26T02:43:32.860Z,100.00
2022-08-26T02:48:55.550Z,100.00
2022-08-26T02:54:19.591Z,100.00
2022-08-26T02:59:42.459Z,100.00
2022-08-26T03:05:05.689Z,100.00
2022-08-26T03:10:27.760Z,100.00
2022-08-26T03:15:50.194Z,100.00
2022-08-26T03:21:16.170Z,100.00
2022-08-26T03:26:40.719Z,100.00
2022-08-26T03:32:17.330Z,100.00
2022-08-26T03:37:40.000Z,100.00
2022-08-26T03:43:03.974Z,100.00
2022-08-26T03:48:26.131Z,100.00
2022-08-26T03:53:48.689Z,100.00
2022-08-26T03:59:10.639Z,100.00
2022-08-26T04:04:32.781Z,100.00
2022-08-26T04:09:58.942Z,100.00
2022-08-26T04:15:22.279Z,100.00
2022-08-26T04:20:44.820Z,100.00
2022-08-26T04:26:08.135Z,100.00
2022-08-26T04:31:34.435Z,100.00
2022-08-26T04:37:03.912Z,99.74
2022-08-26T04:42:30.728Z,98.06
2022-08-26T04:47:57.240Z,97.07
2022-08-26T04:53:22.721Z,97.20
2022-08-26T04:58:46.040Z,98.84
2022-08-26T05:04:08.875Z,97.01
2022-08-26T05:09:37.219Z,93.70
2022-08-26T05:15:01.000Z,89.01
2022-08-26T05:20:26.066Z,86.90
2022-08-26T05:25:52.763Z,84.79
2022-08-26T05:31:20.990Z,82.08
2022-08-26T05:36:42.881Z,80.52
2022-08-26T05:42:08.892Z,77.37
2022-08-26T05:47:31.811Z,76.81
2022-08-26T05:52:59.680Z,75.34
2022-08-26T05:58:23.410Z,72.36
2022-08-26T06:03:48.985Z,69.45
2022-08-26T06:09:11.439Z,67.49
2022-08-26T06:14:33.640Z,67.63
2022-08-26T06:19:56.860Z,66.88
2022-08-26T06:25:39.322Z,66.16
2022-08-26T06:31:03.041Z,65.04
2022-08-26T06:36:28.500Z,64.49
2022-08-26T06:41:51.591Z,62.76
2022-08-26T06:47:13.563Z,61.06
2022-08-26T06:52:35.479Z,60.05
2022-08-26T06:57:58.882Z,59.64
2022-08-26T07:03:22.661Z,59.96
2022-08-26T07:08:44.580Z,58.44
2022-08-26T07:14:08.420Z,57.67
2022-08-26T07:19:31.741Z,55.51
2022-08-26T07:24:54.041Z,54.69
2022-08-26T07:30:19.781Z,54.12
2022-08-26T07:35:43.730Z,53.17
2022-08-26T07:41:07.002Z,52.75
2022-08-26T07:46:33.121Z,51.78
2022-08-26T07:51:56.749Z,52.24
2022-08-26T07:57:19.302Z,51.32
2022-08-26T08:02:47.121Z,51.40
2022-08-26T08:08:26.339Z,50.96
2022-08-26T08:13:52.350Z,49.38
2022-08-26T08:19:18.912Z,49.38
2022-08-26T08:24:43.405Z,48.40
2022-08-26T08:30:08.055Z,47.37
2022-08-26T08:35:29.864Z,47.52
2022-08-26T08:40:52.171Z,47.58
2022-08-26T08:46:17.637Z,46.56
2022-08-26T08:51:59.821Z,45.58
2022-08-26T08:57:53.709Z,45.68
2022-08-26T09:03:37.739Z,46.55
2022-08-26T09:09:03.361Z,45.73
2022-08-26T09:14:26.110Z,42.28
2022-08-26T09:19:53.249Z,44.90
2022-08-26T09:25:18.646Z,44.73
2022-08-26T09:30:40.913Z,44.58
2022-08-26T09:36:37.800Z,42.92
2022-08-26T09:42:09.588Z,43.22
2022-08-26T09:47:54.001Z,43.10
2022-08-26T09:53:30.530Z,42.55
2022-08-26T09:58:59.839Z,42.66
2022-08-26T10:04:35.614Z,42.83
2022-08-26T10:09:59.080Z,43.01
2022-08-26T10:15:36.689Z,43.01
2022-08-26T10:21:31.499Z,42.43
2022-08-26T10:27:12.651Z,42.38
2022-08-26T10:32:41.515Z,42.68
2022-08-26T10:38:12.521Z,41.80
2022-08-26T10:43:42.952Z,41.87
2022-08-26T10:49:10.722Z,41.44
2022-08-26T10:55:01.793Z,41.42
2022-08-26T11:01:10.438Z,41.23
2022-08-26T11:06:38.337Z,40.72
2022-08-26T11:12:06.417Z,41.06
2022-08-26T11:17:47.502Z,41.37
2022-08-26T11:23:22.990Z,40.68
2022-08-26T11:28:52.202Z,41.55
2022-08-26T11:34:15.403Z,40.59
2022-08-26T11:39:57.158Z,40.10
2022-08-26T11:45:41.188Z,39.94
2022-08-26T11:51:11.701Z,40.29
2022-08-26T11:56:37.548Z,39.20
2022-08-26T12:02:01.912Z,39.08
2022-08-26T12:07:35.979Z,37.84
2022-08-26T12:13:01.321Z,38.71
2022-08-26T12:18:30.146Z,37.43
2022-08-26T12:23:58.480Z,37.93
2022-08-26T12:29:28.702Z,39.07
2022-08-26T12:34:51.310Z,39.45
2022-08-26T12:40:36.633Z,39.31
2022-08-26T12:46:02.602Z,39.02
2022-08-26T12:51:32.283Z,39.06
2022-08-26T12:56:54.802Z,39.27
2022-08-26T13:02:37.072Z,39.53
2022-08-26T13:08:28.780Z,39.29
2022-08-26T13:13:53.881Z,38.68
2022-08-26T13:19:21.093Z,39.80
2022-08-26T13:24:55.721Z,39.26
2022-08-26T13:30:25.978Z,39.35
2022-08-26T13:35:50.420Z,39.79
2022-08-26T13:41:29.100Z,39.31
2022-08-26T13:46:55.320Z,39.23
2022-08-26T13:52:17.669Z,39.43
2022-08-26T13:57:52.000Z,39.34
2022-08-26T14:03:15.266Z,39.26
2022-08-26T14:08:39.460Z,39.36
2022-08-26T14:14:02.480Z,39.30
2022-08-26T14:19:28.060Z,40.29
2022-08-26T14:25:22.462Z,40.25
2022-08-26T14:30:48.080Z,41.09
2022-08-26T14:36:28.593Z,41.52
2022-08-26T14:41:55.012Z,42.15
2022-08-26T14:47:17.030Z,42.97
2022-08-26T14:52:57.604Z,43.50
2022-08-26T14:58:20.062Z,44.46
2022-08-26T15:03:43.090Z,44.51
2022-08-26T15:09:06.513Z,45.06
2022-08-26T15:14:32.845Z,45.89
2022-08-26T15:19:55.528Z,46.69
2022-08-26T15:25:18.900Z,46.68
2022-08-26T15:30:42.452Z,47.13
2022-08-26T15:36:13.877Z,47.72
2022-08-26T15:41:38.391Z,48.59
2022-08-26T15:47:01.292Z,49.07
2022-08-26T15:52:23.231Z,49.42
2022-08-26T15:57:45.300Z,50.31
2022-08-26T16:03:16.471Z,51.10
2022-08-26T16:08:52.892Z,51.56
2022-08-26T16:14:15.300Z,52.28
2022-08-26T16:19:40.380Z,53.06
2022-08-26T16:25:21.667Z,53.97
2022-08-26T16:30:47.615Z,54.19
2022-08-26T16:36:10.914Z,53.98
2022-08-26T16:41:33.233Z,54.71
2022-08-26T16:46:58.712Z,55.13
2022-08-26T16:52:21.351Z,55.52
2022-08-26T16:57:47.952Z,56.08
2022-08-26T17:03:10.744Z,56.44
2022-08-26T17:08:33.131Z,57.35
2022-08-26T17:13:55.163Z,57.72
2022-08-26T17:19:18.012Z,57.66
2022-08-26T17:24:40.208Z,58.42
2022-08-26T17:30:03.147Z,58.86
2022-08-26T17:35:26.288Z,59.09
2022-08-26T17:40:48.514Z,59.90
2022-08-26T17:46:12.342Z,60.51
2022-08-26T17:51:34.913Z,61.09
2022-08-26T17:56:59.220Z,61.56
2022-08-26T18:02:22.668Z,62.00
2022-08-26T18:07:45.480Z,62.80
2022-08-26T18:13:07.545Z,63.32
2022-08-26T18:18:29.972Z,63.61
2022-08-26T18:23:53.533Z,64.18
2022-08-26T18:29:17.341Z,64.72
2022-08-26T18:34:40.140Z,65.65
2022-08-26T18:40:02.426Z,65.99
2022-08-26T18:45:26.582Z,66.35
2022-08-26T18:50:49.399Z,67.47
2022-08-26T18:56:13.265Z,68.06
2022-08-26T19:01:41.069Z,68.55
2022-08-26T19:07:03.319Z,68.93
2022-08-26T19:12:27.213Z,68.89
2022-08-26T19:17:49.650Z,69.39
2022-08-26T19:23:30.799Z,69.60
2022-08-26T19:28:54.351Z,70.22
2022-08-26T19:34:17.550Z,70.48
2022-08-26T19:39:43.032Z,70.54
2022-08-26T19:45:07.940Z,70.45
2022-08-26T19:50:40.290Z,71.75
2022-08-26T19:56:02.422Z,72.03
2022-08-26T20:01:25.064Z,72.10
2022-08-26T20:06:47.152Z,72.60
2022-08-26T20:12:13.631Z,72.58
2022-08-26T20:17:36.991Z,73.02
2022-08-26T20:22:59.294Z,72.97
2022-08-26T20:28:21.411Z,73.75
2022-08-26T20:33:46.388Z,74.16
2022-08-26T20:39:09.090Z,74.90
2022-08-26T20:44:31.492Z,75.47
2022-08-26T20:49:53.951Z,75.83
2022-08-26T20:55:16.115Z,76.39
2022-08-26T21:00:39.348Z,76.57
2022-08-26T21:06:01.570Z,76.72
2022-08-26T21:11:26.270Z,77.20
2022-08-26T21:16:48.508Z,78.07
2022-08-26T21:22:10.440Z,78.38
2022-08-26T21:27:32.883Z,78.86
2022-08-26T21:32:54.970Z,79.01
2022-08-26T21:38:17.640Z,79.34
2022-08-26T21:43:40.809Z,79.94
2022-08-26T21:49:05.359Z,81.02
2022-08-26T21:54:27.310Z,81.58
2022-08-26T21:59:49.927Z,81.50
2022-08-26T22:05:12.280Z,82.06
2022-08-26T22:10:34.728Z,82.57
2022-08-26T22:15:58.849Z,82.93
2022-08-26T22:21:24.884Z,83.33
2022-08-26T22:26:48.749Z,84.45
2022-08-26T22:32:10.915Z,85.01
2022-08-26T22:37:33.250Z,85.68
2022-08-26T22:42:58.715Z,85.99
2022-08-26T22:48:25.850Z,86.51
2022-08-26T22:53:48.290Z,87.34
2022-08-26T22:59:11.632Z,87.18
2022-08-26T23:04:34.771Z,87.54
2022-08-26T23:09:57.630Z,88.21
2022-08-26T23:15:21.760Z,88.69
2022-08-26T23:20:43.800Z,88.14
2022-08-26T23:26:08.293Z,88.21
2022-08-26T23:31:30.534Z,88.19
2022-08-26T23:36:53.863Z,88.73
2022-08-26T23:42:16.230Z,89.43
2022-08-26T23:47:38.411Z,90.58
2022-08-26T23:53:06.227Z,91.65
2022-08-26T23:58:28.269Z,91.46
